createdAt,value
2017-09-04T00:00:00.209Z,12.70
2017-09-04T00:02:27.177Z,12.60
2017-09-04T00:04:54.085Z,12.70
2017-09-04T00:07:20.961Z,12.70
2017-09-04T00:09:47.911Z,12.80
2017-09-04T00:12:14.925Z,12.80
2017-09-04T00:14:41.881Z,12.60
2017-09-04T00:17:08.751Z,12.70
2017-09-04T00:19:35.665Z,12.70
2017-09-04T00:22:02.604Z,12.70
2017-09-04T00:24:29.496Z,12.60
2017-09-04T00:26:56.447Z,12.50
2017-09-04T00:29:24.142Z,12.50
2017-09-04T00:31:51.144Z,12.40
2017-09-04T00:34:18.098Z,12.50
2017-09-04T00:36:45.805Z,12.50
2017-09-04T00:39:12.745Z,12.50
2017-09-04T00:41:39.644Z,12.40
2017-09-04T00:44:06.597Z,12.40
2017-09-04T00:46:33.582Z,12.30
2017-09-04T00:49:00.503Z,12.40
2017-09-04T00:51:28.248Z,12.20
2017-09-04T00:53:55.163Z,12.20
2017-09-04T00:56:22.187Z,12.30
2017-09-04T00:58:49.146Z,12.30
2017-09-04T01:01:16.057Z,12.20
2017-09-04T01:03:43.820Z,12.30
2017-09-04T01:06:11.562Z,12.20
2017-09-04T01:08:38.542Z,12.20
2017-09-04T01:11:05.529Z,12.20
2017-09-04T01:13:32.589Z,12.20
2017-09-04T01:15:59.587Z,12.30
2017-09-04T01:18:26.462Z,12.30
2017-09-04T01:20:53.464Z,12.30
2017-09-04T01:23:21.091Z,12.10
2017-09-04T01:25:48.051Z,12.10
2017-09-04T01:28:14.955Z,12.00
2017-09-04T01:30:42.012Z,11.80
2017-09-04T01:33:09.049Z,11.90
2017-09-04T01:35:35.950Z,11.90
2017-09-04T01:38:02.913Z,12.00
2017-09-04T01:40:30.508Z,12.10
2017-09-04T01:42:57.425Z,12.10
2017-09-04T01:45:24.368Z,12.10
2017-09-04T01:47:51.981Z,12.00
2017-09-04T01:50:18.932Z,12.00
2017-09-04T01:52:45.865Z,11.90
2017-09-04T01:55:12.861Z,11.90
2017-09-04T01:57:39.737Z,11.90
2017-09-04T02:00:06.650Z,11.90
2017-09-04T02:02:33.614Z,12.00
2017-09-04T02:05:00.476Z,12.00
2017-09-04T02:07:27.429Z,12.00
2017-09-04T02:09:54.346Z,12.00
2017-09-04T02:12:21.298Z,12.00
2017-09-04T02:14:48.241Z,12.00
2017-09-04T02:17:15.248Z,12.00
2017-09-04T02:19:42.185Z,11.90
2017-09-04T02:22:09.064Z,11.90
2017-09-04T02:24:36.759Z,11.90
2017-09-04T02:27:03.675Z,11.90
2017-09-04T02:29:31.323Z,11.40
2017-09-04T02:31:58.293Z,11.30
2017-09-04T02:34:25.177Z,11.50
2017-09-04T02:36:52.143Z,11.60
2017-09-04T02:39:19.079Z,11.70
2017-09-04T02:41:46.013Z,11.60
2017-09-04T02:44:12.967Z,11.60
2017-09-04T02:46:39.827Z,11.40
2017-09-04T02:49:06.744Z,11.20
2017-09-04T02:51:33.684Z,11.20
2017-09-04T02:54:00.560Z,10.90
2017-09-04T02:56:27.513Z,10.90
2017-09-04T02:58:54.398Z,10.90
2017-09-04T03:01:21.261Z,10.80
2017-09-04T03:03:48.207Z,10.90
2017-09-04T03:06:15.077Z,10.90
2017-09-04T03:08:42.960Z,11.10
2017-09-04T03:11:09.940Z,11.10
2017-09-04T03:13:36.944Z,11.20
2017-09-04T03:16:03.848Z,11.30
2017-09-04T03:18:30.824Z,11.40
2017-09-04T03:20:57.813Z,11.50
2017-09-04T03:23:24.719Z,11.40
2017-09-04T03:25:51.741Z,10.90
2017-09-04T03:28:18.714Z,10.90
2017-09-04T03:30:45.743Z,11.00
2017-09-04T03:33:12.802Z,11.10
2017-09-04T03:35:39.734Z,11.20
2017-09-04T03:38:06.735Z,11.20
2017-09-04T03:40:33.730Z,11.10
2017-09-04T03:43:00.818Z,11.20
2017-09-04T03:45:27.841Z,11.20
2017-09-04T03:47:54.901Z,10.80
2017-09-04T03:50:22.017Z,10.40
2017-09-04T03:52:49.084Z,10.40
2017-09-04T03:55:16.248Z,10.30
2017-09-04T03:57:43.274Z,10.50
2017-09-04T04:00:10.332Z,10.60
2017-09-04T04:02:37.292Z,10.70
2017-09-04T04:05:04.292Z,10.80
2017-09-04T04:07:31.390Z,10.90
2017-09-04T04:09:58.359Z,11.00
2017-09-04T04:12:25.373Z,11.10
2017-09-04T04:14:52.413Z,11.10
2017-09-04T04:17:19.372Z,11.10
2017-09-04T04:19:46.307Z,10.70
2017-09-04T04:22:13.507Z,10.50
2017-09-04T04:24:40.393Z,10.20
2017-09-04T04:27:23.456Z,9.90
2017-09-04T04:29:51.092Z,9.90
2017-09-04T04:32:18.031Z,10.10
2017-09-04T04:34:44.948Z,10.20
2017-09-04T04:37:11.910Z,10.20
2017-09-04T04:39:45.577Z,10.40
2017-09-04T04:42:12.490Z,10.30
2017-09-04T04:44:39.407Z,10.50
2017-09-04T04:47:07.120Z,10.50
2017-09-04T04:49:34.004Z,10.50
2017-09-04T04:52:00.985Z,10.70
2017-09-04T04:54:27.891Z,10.70
2017-09-04T04:56:54.794Z,10.70
2017-09-04T04:59:21.756Z,10.80
2017-09-04T05:01:48.705Z,11.00
2017-09-04T05:04:15.732Z,11.00
2017-09-04T05:06:42.690Z,11.10
2017-09-04T05:09:09.571Z,11.20
2017-09-04T05:11:36.491Z,11.20
2017-09-04T05:14:03.364Z,11.30
2017-09-04T05:16:30.299Z,11.40
2017-09-04T05:18:57.275Z,11.30
2017-09-04T05:21:24.162Z,11.50
2017-09-04T05:23:51.073Z,11.60
2017-09-04T05:26:18.081Z,11.70
2017-09-04T05:28:44.982Z,11.60
2017-09-04T05:31:11.948Z,11.80
2017-09-04T05:33:38.897Z,11.80
2017-09-04T05:36:05.808Z,11.60
2017-09-04T05:38:32.792Z,11.40
2017-09-04T05:40:59.662Z,11.30
2017-09-04T05:43:26.551Z,11.10
2017-09-04T05:45:55.134Z,11.00
2017-09-04T05:48:22.513Z,11.00
2017-09-04T05:50:49.421Z,10.80
2017-09-04T05:53:16.591Z,10.90
2017-09-04T05:55:43.527Z,10.70
2017-09-04T05:58:10.461Z,10.90
2017-09-04T06:00:37.571Z,10.90
2017-09-04T06:03:04.448Z,11.00
2017-09-04T06:05:32.199Z,11.30
2017-09-04T06:07:59.194Z,11.30
2017-09-04T06:10:26.120Z,11.40
2017-09-04T06:12:53.060Z,11.50
2017-09-04T06:15:19.976Z,11.80
2017-09-04T06:17:46.952Z,12.00
2017-09-04T06:20:14.684Z,12.40
2017-09-04T06:22:42.151Z,12.40
2017-09-04T06:25:11.570Z,12.30
2017-09-04T06:27:45.969Z,12.10
2017-09-04T06:30:14.193Z,12.00
2017-09-04T06:32:41.461Z,12.20
2017-09-04T06:35:08.505Z,12.30
2017-09-04T06:37:35.495Z,12.70
2017-09-04T06:40:02.573Z,13.00
2017-09-04T06:42:33.914Z,13.40
2017-09-04T06:45:01.177Z,13.60
2017-09-04T06:47:32.090Z,13.70
2017-09-04T06:50:00.277Z,14.00
2017-09-04T06:52:28.483Z,14.10
2017-09-04T06:54:55.483Z,14.10
2017-09-04T06:57:22.369Z,14.30
2017-09-04T06:59:49.272Z,13.70
2017-09-04T07:02:16.240Z,14.20
2017-09-04T07:04:43.872Z,14.50
2017-09-04T07:07:10.802Z,14.50
2017-09-04T07:09:37.704Z,15.20
2017-09-04T07:12:04.645Z,15.50
2017-09-04T07:14:31.590Z,15.60
2017-09-04T07:16:58.508Z,15.70
2017-09-04T07:19:25.488Z,15.60
2017-09-04T07:21:53.184Z,14.50
2017-09-04T07:24:20.119Z,14.40
2017-09-04T07:26:47.204Z,14.90
2017-09-04T07:29:14.103Z,15.40
2017-09-04T07:31:40.988Z,16.00
2017-09-04T07:34:07.938Z,15.50
2017-09-04T07:36:34.826Z,15.10
2017-09-04T07:39:02.696Z,15.80
2017-09-04T07:41:29.624Z,15.40
2017-09-04T07:43:56.588Z,16.10
2017-09-04T07:46:24.259Z,17.00
2017-09-04T07:48:51.883Z,17.30
2017-09-04T07:51:18.872Z,17.30
2017-09-04T07:53:45.789Z,16.70
2017-09-04T07:56:12.772Z,17.10
2017-09-04T07:58:39.680Z,17.20
2017-09-04T08:01:06.678Z,16.70
2017-09-04T08:03:33.544Z,16.40
2017-09-04T08:06:00.492Z,17.10
2017-09-04T08:08:27.472Z,18.00
2017-09-04T08:10:54.493Z,18.10
2017-09-04T08:13:21.399Z,18.50
2017-09-04T08:15:48.344Z,18.70
2017-09-04T08:18:15.259Z,21.20
2017-09-04T08:20:42.253Z,23.10
2017-09-04T08:23:09.170Z,24.10
2017-09-04T08:25:36.821Z,24.80
2017-09-04T08:28:04.545Z,24.40
2017-09-04T08:30:31.522Z,24.40
2017-09-04T08:32:58.476Z,22.70
2017-09-04T08:35:25.357Z,23.10
2017-09-04T08:37:52.324Z,23.60
2017-09-04T08:40:19.218Z,24.10
2017-09-04T08:42:46.843Z,25.00
2017-09-04T08:45:16.278Z,25.00
2017-09-04T08:47:43.307Z,24.80
2017-09-04T08:50:10.297Z,25.90
2017-09-04T08:52:38.066Z,28.60
2017-09-04T08:55:06.057Z,28.60
2017-09-04T08:57:36.328Z,29.70
2017-09-04T09:00:03.368Z,30.10
2017-09-04T09:02:30.232Z,28.20
2017-09-04T09:04:57.350Z,29.70
2017-09-04T09:07:24.303Z,29.70
2017-09-04T09:09:51.233Z,29.20
2017-09-04T09:12:18.198Z,29.80
2017-09-04T09:14:45.129Z,31.40
2017-09-04T09:17:12.041Z,32.50
2017-09-04T09:19:39.012Z,34.00
2017-09-04T09:22:06.004Z,31.60
2017-09-04T09:24:32.900Z,30.70
2017-09-04T09:27:00.014Z,29.40
2017-09-04T09:29:27.025Z,28.90
2017-09-04T09:31:54.081Z,29.40
2017-09-04T09:34:21.050Z,29.90
2017-09-04T09:36:48.741Z,31.30
2017-09-04T09:39:15.717Z,31.20
2017-09-04T09:41:42.609Z,31.20
2017-09-04T09:44:10.259Z,31.70
2017-09-04T09:46:38.002Z,30.80
2017-09-04T09:49:04.908Z,30.80
2017-09-04T09:51:31.880Z,30.30
2017-09-04T09:53:58.957Z,29.40
2017-09-04T09:56:25.930Z,28.60
2017-09-04T09:58:53.717Z,27.70
2017-09-04T10:01:21.465Z,27.90
2017-09-04T10:03:48.571Z,27.90
2017-09-04T10:06:15.529Z,27.90
2017-09-04T10:08:42.486Z,26.70
2017-09-04T10:11:09.625Z,25.70
2017-09-04T10:13:36.633Z,26.20
2017-09-04T10:16:03.655Z,26.80
2017-09-04T10:18:30.718Z,27.30
2017-09-04T10:20:58.429Z,27.50
2017-09-04T10:23:25.518Z,27.60
2017-09-04T10:25:52.608Z,27.90
2017-09-04T10:28:19.601Z,28.10
2017-09-04T10:30:46.580Z,27.80
2017-09-04T10:33:13.662Z,26.60
2017-09-04T10:35:40.613Z,26.60
2017-09-04T10:38:07.629Z,27.10
2017-09-04T10:40:35.345Z,26.80
2017-09-04T10:43:02.386Z,26.80
2017-09-04T10:45:29.345Z,26.00
2017-09-04T10:47:56.285Z,25.20
2017-09-04T10:50:23.350Z,25.50
2017-09-04T10:52:50.352Z,25.70
2017-09-04T10:55:17.464Z,26.00
2017-09-04T10:57:45.212Z,26.10
2017-09-04T11:00:12.108Z,26.10
2017-09-04T11:02:39.126Z,27.00
2017-09-04T11:05:06.794Z,27.30
2017-09-04T11:07:34.680Z,27.40
2017-09-04T11:10:01.759Z,27.30
2017-09-04T11:12:28.739Z,27.70
2017-09-04T11:14:55.745Z,27.60
2017-09-04T11:17:22.949Z,27.30
2017-09-04T11:19:49.919Z,27.10
2017-09-04T11:22:16.954Z,26.70
2017-09-04T11:24:44.709Z,26.90
2017-09-04T11:27:12.420Z,27.10
2017-09-04T11:29:39.471Z,27.10
2017-09-04T11:32:06.457Z,26.80
2017-09-04T11:34:33.471Z,27.20
2017-09-04T11:37:00.466Z,27.30
2017-09-04T11:39:27.554Z,27.10
2017-09-04T11:41:54.582Z,27.20
2017-09-04T11:44:22.325Z,27.50
2017-09-04T11:46:49.317Z,27.50
2017-09-04T11:49:16.233Z,27.10
2017-09-04T11:51:43.173Z,27.10
2017-09-04T11:54:10.107Z,26.60
2017-09-04T11:56:37.194Z,26.70
2017-09-04T11:59:04.925Z,26.70
2017-09-04T12:01:31.921Z,26.70
2017-09-04T12:03:58.984Z,25.80
2017-09-04T12:06:25.918Z,26.40
2017-09-04T12:08:52.832Z,26.50
2017-09-04T12:11:20.607Z,26.80
2017-09-04T12:13:48.232Z,26.50
2017-09-04T12:16:15.154Z,26.50
2017-09-04T12:18:42.170Z,26.60
2017-09-04T12:21:09.863Z,27.00
2017-09-04T12:23:36.756Z,26.90
2017-09-04T12:26:03.719Z,27.00
2017-09-04T12:28:31.408Z,27.30
2017-09-04T12:30:58.357Z,27.30
2017-09-04T12:33:25.301Z,27.30
2017-09-04T12:35:52.272Z,27.20
2017-09-04T12:38:19.225Z,27.10
2017-09-04T12:40:46.374Z,26.40
2017-09-04T12:43:14.213Z,26.30
2017-09-04T12:45:41.269Z,26.40
2017-09-04T12:48:08.209Z,26.30
2017-09-04T12:50:35.191Z,26.50
2017-09-04T12:53:02.226Z,26.50
2017-09-04T12:55:29.109Z,26.80
2017-09-04T12:57:56.081Z,26.90
2017-09-04T13:00:23.044Z,27.20
2017-09-04T13:02:50.097Z,27.10
2017-09-04T13:05:17.099Z,26.90
2017-09-04T13:07:44.140Z,26.30
2017-09-04T13:10:34.178Z,26.00
2017-09-04T13:13:12.001Z,26.00
2017-09-04T13:15:52.785Z,26.00
2017-09-04T13:18:31.534Z,26.00
2017-09-04T13:21:05.136Z,25.80
2017-09-04T13:23:39.284Z,25.50
2017-09-04T13:26:12.413Z,25.50
2017-09-04T13:28:45.764Z,25.30
2017-09-04T13:31:18.768Z,25.20
2017-09-04T13:33:55.184Z,25.30
2017-09-04T13:36:30.000Z,25.20
2017-09-04T13:39:05.001Z,25.20
2017-09-04T13:41:48.845Z,25.20
2017-09-04T13:44:21.859Z,25.40
2017-09-04T13:46:51.874Z,25.20
2017-09-04T13:49:24.773Z,25.10
2017-09-04T13:51:54.668Z,25.10
2017-09-04T13:54:22.686Z,25.30
2017-09-04T13:56:56.379Z,25.40
2017-09-04T13:59:29.341Z,25.30
2017-09-04T14:02:14.006Z,25.50
2017-09-04T14:04:47.614Z,25.60
2017-09-04T14:07:17.061Z,25.50
2017-09-04T14:09:46.140Z,25.60
2017-09-04T14:12:19.550Z,25.70
2017-09-04T14:15:04.513Z,25.70
2017-09-04T14:17:38.342Z,25.70
2017-09-04T14:20:09.319Z,25.60
2017-09-04T14:22:37.729Z,25.50
2017-09-04T14:25:08.822Z,25.40
2017-09-04T14:27:38.864Z,25.20
2017-09-04T14:30:06.817Z,25.00
2017-09-04T14:32:34.069Z,24.90
2017-09-04T14:35:01.037Z,25.00
2017-09-04T14:37:28.133Z,25.10
2017-09-04T14:39:55.109Z,25.10
2017-09-04T14:42:23.127Z,25.20
2017-09-04T14:44:53.575Z,25.30
2017-09-04T14:47:22.270Z,25.00
2017-09-04T14:49:53.677Z,25.00
2017-09-04T14:52:23.965Z,25.00
2017-09-04T14:54:54.251Z,24.70
2017-09-04T14:57:26.652Z,24.70
2017-09-04T14:59:55.615Z,24.50
2017-09-04T15:02:25.690Z,24.50
2017-09-04T15:04:56.020Z,24.60
2017-09-04T15:07:28.241Z,24.80
2017-09-04T15:09:57.545Z,24.60
2017-09-04T15:12:28.036Z,24.70
2017-09-04T15:14:55.065Z,24.70
2017-09-04T15:17:22.121Z,24.70
2017-09-04T15:19:49.319Z,24.60
2017-09-04T15:22:17.467Z,24.80
2017-09-04T15:24:44.529Z,24.80
2017-09-04T15:27:14.963Z,24.90
2017-09-04T15:29:45.326Z,25.00
2017-09-04T15:32:18.632Z,25.00
2017-09-04T15:34:48.934Z,24.90
2017-09-04T15:37:17.265Z,24.90
2017-09-04T15:39:44.484Z,25.00
2017-09-04T15:42:12.651Z,25.00
2017-09-04T15:44:41.131Z,25.00
2017-09-04T15:47:10.779Z,24.80
2017-09-04T15:49:40.129Z,24.80
2017-09-04T15:52:10.453Z,24.70
2017-09-04T15:54:41.692Z,24.80
2017-09-04T15:57:10.653Z,24.80
2017-09-04T15:59:38.001Z,24.70
2017-09-04T16:02:07.604Z,24.50
2017-09-04T16:04:35.668Z,24.40
2017-09-04T16:07:08.708Z,24.10
2017-09-04T16:09:35.733Z,24.10
2017-09-04T16:12:06.488Z,23.90
2017-09-04T16:14:33.727Z,23.60
2017-09-04T16:17:16.644Z,23.40
2017-09-04T16:19:58.563Z,23.30
2017-09-04T16:22:46.905Z,23.00
2017-09-04T16:25:16.534Z,22.80
2017-09-04T16:27:47.546Z,22.30
2017-09-04T16:30:14.819Z,22.20
2017-09-04T16:32:47.521Z,22.00
2017-09-04T16:35:17.360Z,22.00
2017-09-04T16:37:48.266Z,21.90
2017-09-04T16:40:15.987Z,21.70
2017-09-04T16:43:00.643Z,21.70
2017-09-04T16:45:40.123Z,21.70
2017-09-04T16:48:21.311Z,21.70
2017-09-04T16:51:15.471Z,21.70
2017-09-04T16:53:46.691Z,21.60
2017-09-04T16:56:17.633Z,21.60
2017-09-04T16:58:56.099Z,21.40
2017-09-04T17:01:35.465Z,21.40
2017-09-04T17:04:04.924Z,21.40
2017-09-04T17:06:39.441Z,21.40
2017-09-04T17:09:22.361Z,21.50
2017-09-04T17:11:52.587Z,21.30
2017-09-04T17:14:20.150Z,21.30
2017-09-04T17:16:47.836Z,21.30
2017-09-04T17:19:19.895Z,21.30
2017-09-04T17:21:58.190Z,21.20
2017-09-04T17:24:34.902Z,21.10
2017-09-04T17:27:10.101Z,21.10
2017-09-04T17:29:47.915Z,21.10
2017-09-04T17:32:20.772Z,21.10
2017-09-04T17:34:54.525Z,21.00
2017-09-04T17:37:25.450Z,20.90
2017-09-04T17:40:04.496Z,20.90
2017-09-04T17:42:32.230Z,20.90
2017-09-04T17:45:03.261Z,20.90
2017-09-04T17:47:44.371Z,20.90
2017-09-04T17:50:12.012Z,20.90
2017-09-04T17:52:39.120Z,20.80
2017-09-04T17:55:07.327Z,20.80
2017-09-04T17:57:34.306Z,20.80
2017-09-04T18:00:01.352Z,20.70
2017-09-04T18:02:28.368Z,20.70
2017-09-04T18:05:01.079Z,20.60
2017-09-04T18:07:28.951Z,20.50
2017-09-04T18:09:56.770Z,20.50
2017-09-04T18:12:23.782Z,20.50
2017-09-04T18:14:50.767Z,20.40
2017-09-04T18:17:17.737Z,20.40
2017-09-04T18:19:44.759Z,20.40
2017-09-04T18:22:11.720Z,20.40
2017-09-04T18:24:38.737Z,20.30
2017-09-04T18:27:05.669Z,20.30
2017-09-04T18:29:45.275Z,20.30
2017-09-04T18:32:21.826Z,20.20
2017-09-04T18:35:01.729Z,20.10
2017-09-04T18:37:30.236Z,20.10
2017-09-04T18:39:59.064Z,20.00
2017-09-04T18:42:27.300Z,20.00
2017-09-04T18:44:54.725Z,20.00
2017-09-04T18:47:23.474Z,20.00
2017-09-04T18:52:35.984Z,19.90
2017-09-04T18:55:04.493Z,19.90
2017-09-04T18:57:31.509Z,19.90
2017-09-04T18:59:58.642Z,19.90
2017-09-04T19:02:25.530Z,19.80
2017-09-04T19:04:53.501Z,19.80
2017-09-04T19:07:27.392Z,19.70
2017-09-04T19:09:58.941Z,19.70
2017-09-04T19:12:28.233Z,19.70
2017-09-04T19:14:55.216Z,19.70
2017-09-04T19:17:23.484Z,19.70
2017-09-04T19:19:50.939Z,19.60
2017-09-04T19:22:19.286Z,19.70
2017-09-04T19:24:48.492Z,19.60
2017-09-04T19:27:18.056Z,19.60
2017-09-04T19:29:45.228Z,19.60
2017-09-04T19:32:12.920Z,19.50
2017-09-04T19:34:41.126Z,19.50
2017-09-04T19:37:09.512Z,19.50
2017-09-04T19:39:36.636Z,19.50
2017-09-04T19:42:03.673Z,19.50
2017-09-04T19:44:30.615Z,19.50
2017-09-04T19:46:59.713Z,19.40
2017-09-04T19:49:33.105Z,19.40
2017-09-04T19:52:00.545Z,19.40
2017-09-04T19:54:29.250Z,19.40
2017-09-04T19:56:57.025Z,19.40
2017-09-04T19:59:24.043Z,19.30
2017-09-04T20:01:51.768Z,19.30
2017-09-04T20:04:18.765Z,19.20
2017-09-04T20:06:45.814Z,19.20
2017-09-04T20:11:56.640Z,19.30
2017-09-04T20:14:23.593Z,19.20
2017-09-04T20:16:52.188Z,19.20
2017-09-04T20:19:19.296Z,19.20
2017-09-04T20:21:48.427Z,19.20
2017-09-04T20:24:15.597Z,19.20
2017-09-04T20:26:43.881Z,19.20
2017-09-04T20:29:24.569Z,19.20
2017-09-04T20:31:54.239Z,19.20
2017-09-04T20:34:22.723Z,19.20
2017-09-04T20:36:51.947Z,19.10
2017-09-04T20:39:19.036Z,19.10
2017-09-04T20:41:46.213Z,19.20
2017-09-04T20:44:16.162Z,19.10
2017-09-04T20:46:44.370Z,19.10
2017-09-04T20:49:11.241Z,19.00
2017-09-04T20:51:38.168Z,19.00
2017-09-04T20:54:07.996Z,19.00
2017-09-04T20:56:37.888Z,19.00
2017-09-04T20:59:06.903Z,19.00
2017-09-04T21:01:35.488Z,19.00
2017-09-04T21:04:04.308Z,18.90
2017-09-04T21:06:31.924Z,18.90
2017-09-04T21:08:58.918Z,18.80
2017-09-04T21:11:26.558Z,18.80
2017-09-04T21:13:55.142Z,18.80
2017-09-04T21:16:22.176Z,18.80
2017-09-04T21:18:49.217Z,18.80
2017-09-04T21:21:19.329Z,18.80
2017-09-04T21:23:46.312Z,18.80
2017-09-04T21:26:13.361Z,18.80
2017-09-04T21:28:40.299Z,18.80
2017-09-04T21:31:07.253Z,18.80
2017-09-04T21:33:34.918Z,18.70
2017-09-04T21:36:01.932Z,18.70
2017-09-04T21:38:29.041Z,18.70
2017-09-04T21:40:56.073Z,18.60
2017-09-04T21:43:23.113Z,18.70
2017-09-04T21:45:50.272Z,18.60
2017-09-04T21:48:17.180Z,18.60
2017-09-04T21:50:44.201Z,18.60
2017-09-04T21:53:11.891Z,18.60
2017-09-04T21:55:38.902Z,18.60
2017-09-04T21:58:06.488Z,18.60
2017-09-04T22:00:34.128Z,18.70
2017-09-04T22:03:01.853Z,18.70
2017-09-04T22:05:28.782Z,18.70
2017-09-04T22:07:55.753Z,18.70
2017-09-04T22:10:22.757Z,18.70
2017-09-04T22:12:49.660Z,18.70
2017-09-04T22:15:16.545Z,18.70
2017-09-04T22:17:43.498Z,18.70
2017-09-04T22:20:10.382Z,18.70
2017-09-04T22:22:37.384Z,18.70
2017-09-04T22:25:04.320Z,18.70
2017-09-04T22:27:32.089Z,18.70
2017-09-04T22:29:59.777Z,18.70
2017-09-04T22:32:26.746Z,18.60
2017-09-04T22:34:53.792Z,18.60
2017-09-04T22:37:20.769Z,18.70
2017-09-04T22:39:47.728Z,18.60
2017-09-04T22:42:14.729Z,18.60
2017-09-04T22:44:41.669Z,18.60
2017-09-04T22:47:08.601Z,18.60
2017-09-04T22:49:35.617Z,18.60
2017-09-04T22:52:03.304Z,18.60
2017-09-04T22:54:30.300Z,18.50
2017-09-04T22:56:57.300Z,18.60
2017-09-04T22:59:31.203Z,18.50
2017-09-04T23:01:58.196Z,18.50
2017-09-04T23:04:25.160Z,18.50
2017-09-04T23:06:52.158Z,18.50
2017-09-04T23:09:19.100Z,18.50
2017-09-04T23:11:46.141Z,18.40
2017-09-04T23:14:13.051Z,18.40
2017-09-04T23:16:39.940Z,18.50
2017-09-04T23:19:06.906Z,18.50
2017-09-04T23:21:33.820Z,18.50
2017-09-04T23:24:01.488Z,18.40
2017-09-04T23:26:28.445Z,18.40
2017-09-04T23:28:55.408Z,18.30
2017-09-04T23:31:22.431Z,18.30
2017-09-04T23:33:49.396Z,18.30
2017-09-04T23:36:16.341Z,18.30
2017-09-04T23:38:43.316Z,18.30
2017-09-04T23:41:10.257Z,18.40
2017-09-04T23:43:37.269Z,18.40
2017-09-04T23:46:04.221Z,18.30
2017-09-04T23:48:31.149Z,18.30
2017-09-04T23:50:58.862Z,18.30
2017-09-04T23:53:25.837Z,18.30
2017-09-04T23:55:52.769Z,18.30
2017-09-04T23:58:19.833Z,18.30
